Vordingborg, Denmark
Current Conditions -  °F | °C
As of 7:20 AM on Thursday 23 Oct 2014 (Local Time) from EKRK Reporting Station
Overcast Overcast  
Wind Chill: 52°   Ceiling: 1800
Heat Index: 52°   Visibility: 6mi
Dew Point: 50°   Wind: 10mph
Humidity: 94%   Direction: 110°ESE
Pressure: 30.09"   Gusts: NA
Location:  55.01°N, 11.91°E
Report Text: EKRK 230520Z AUTO 11009KT 9999NDV FEW014/// OVC018///11/10 Q1019
Loading
Personal Weather Stations






























Interactive Weather Map
Tropical Storm Tracking
New forecast layout! Learn more

10-Day Weather Forecast

Advertisements
Track Severe Weather on mobile